Time;durP1;ratioP1;P1;durP2;ratioP2;P2;SDS_P1;SDS_P2;PMS_P1;PMS_P2;Temp;Humidity;BMP_temperature;BMP_pressure;BME280_temperature;BME280_humidity;BME280_pressure;Samples;Min_cycle;Max_cycle;Signal;HPM_P1;HPM_P2
2023/05/25 00:00:43;;;;;;;6.63;3.05;;;12.50;99.90;;;;;;5068700;28;20048;-57
2023/05/25 00:03:29;;;;;;;4.63;2.30;;;12.40;99.90;;;;;;5059963;28;20037;-58
2023/05/25 00:06:01;;;;;;;5.55;1.98;;;12.40;99.90;;;;;;5060772;28;20196;-57
2023/05/25 00:08:29;;;;;;;6.55;2.20;;;12.40;99.90;;;;;;5056499;28;20053;-58
2023/05/25 00:10:58;;;;;;;3.45;2.22;;;12.30;99.90;;;;;;5054599;28;20047;-59
2023/05/25 00:13:25;;;;;;;8.23;2.50;;;12.30;99.90;;;;;;5062490;28;20408;-57
2023/05/25 00:15:53;;;;;;;4.88;2.40;;;12.20;99.90;;;;;;5066732;28;20212;-58
2023/05/25 00:18:25;;;;;;;4.93;2.60;;;12.30;99.90;;;;;;5067394;28;20048;-57
2023/05/25 00:20:53;;;;;;;11.02;2.80;;;12.30;99.90;;;;;;5068771;28;20064;-57
2023/05/25 00:23:21;;;;;;;8.02;2.47;;;12.20;99.90;;;;;;5053720;28;20041;-58
2023/05/25 00:25:49;;;;;;;11.43;3.22;;;12.30;99.90;;;;;;5066372;28;20040;-57
2023/05/25 00:28:17;;;;;;;6.35;2.25;;;12.20;99.90;;;;;;5062046;28;20068;-57
2023/05/25 00:30:45;;;;;;;8.45;2.72;;;12.30;99.90;;;;;;5049738;28;20048;-57
2023/05/25 00:33:13;;;;;;;4.88;2.40;;;12.30;99.90;;;;;;5063703;28;20408;-57
2023/05/25 00:35:45;;;;;;;5.53;2.33;;;12.30;99.90;;;;;;5063231;28;20052;-58
2023/05/25 00:38:18;;;;;;;5.10;2.08;;;12.40;99.90;;;;;;5055381;28;20040;-58
2023/05/25 00:40:46;;;;;;;6.57;2.17;;;12.40;99.90;;;;;;5059715;28;20055;-57
2023/05/25 00:43:14;;;;;;;6.90;2.38;;;12.50;99.90;;;;;;5067286;28;20041;-57
2023/05/25 00:45:43;;;;;;;4.43;2.42;;;12.50;99.90;;;;;;5065986;28;20041;-57
2023/05/25 00:48:13;;;;;;;6.43;2.25;;;12.50;99.90;;;;;;5074668;28;20067;-57
2023/05/25 00:50:43;;;;;;;5.07;2.90;;;12.50;99.90;;;;;;5053692;28;20064;-58
2023/05/25 00:53:13;;;;;;;8.38;2.75;;;12.50;99.90;;;;;;5066583;28;20051;-58
2023/05/25 00:55:49;;;;;;;6.50;2.22;;;12.50;99.90;;;;;;5063439;28;20399;-57
2023/05/25 00:58:21;;;;;;;6.70;3.00;;;12.50;99.90;;;;;;5064007;28;20400;-57
2023/05/25 01:00:52;;;;;;;7.15;2.70;;;12.50;99.90;;;;;;5067035;28;20507;-57
2023/05/25 01:03:26;;;;;;;4.25;3.00;;;12.40;99.90;;;;;;5064467;28;20048;-57
2023/05/25 01:05:56;;;;;;;10.35;3.05;;;12.50;99.90;;;;;;5062176;28;20552;-56
2023/05/25 01:08:27;;;;;;;10.88;3.00;;;12.40;99.90;;;;;;5062106;28;20484;-57
2023/05/25 01:10:57;;;;;;;7.45;2.63;;;12.40;99.90;;;;;;5052401;28;20533;-58
2023/05/25 01:13:26;;;;;;;13.38;3.70;;;13.00;99.90;;;;;;5067748;28;20041;-56
2023/05/25 01:15:55;;;;;;;7.53;2.80;;;12.50;99.90;;;;;;5074568;28;20052;-57
2023/05/25 01:18:22;;;;;;;6.15;2.88;;;12.50;99.90;;;;;;5061588;28;20044;-57
2023/05/25 01:21:20;;;;;;;7.47;2.88;;;12.50;99.90;;;;;;5067666;28;20052;-56
2023/05/25 01:24:02;;;;;;;8.57;2.80;;;12.50;99.90;;;;;;5062121;28;20056;-57
2023/05/25 01:26:35;;;;;;;6.95;2.67;;;12.60;99.90;;;;;;5046291;28;20045;-56
2023/05/25 01:29:05;;;;;;;6.70;2.90;;;12.60;99.90;;;;;;5062885;28;20045;-56
2023/05/25 01:31:35;;;;;;;12.18;3.15;;;12.60;99.90;;;;;;5049270;28;20392;-56
2023/05/25 01:34:06;;;;;;;9.82;3.20;;;12.70;99.90;;;;;;5059344;28;20504;-57
2023/05/25 01:36:34;;;;;;;9.63;2.95;;;12.70;99.90;;;;;;5052359;28;20044;-57
2023/05/25 01:39:06;;;;;;;7.05;2.80;;;12.80;99.90;;;;;;5070230;28;20443;-57
2023/05/25 01:41:34;;;;;;;6.72;2.65;;;12.80;99.90;;;;;;5066582;28;20049;-58
2023/05/25 01:44:02;;;;;;;6.63;3.20;;;12.80;99.90;;;;;;5063761;28;20049;-58
2023/05/25 01:46:35;;;;;;;11.32;3.25;;;12.90;99.90;;;;;;5057368;28;20387;-58
2023/05/25 01:49:22;;;;;;;4.43;2.47;;;12.80;99.90;;;;;;5069825;28;20047;-58
2023/05/25 01:52:12;;;;;;;9.07;3.13;;;12.90;99.90;;;;;;5074645;28;20048;-57
2023/05/25 01:54:47;;;;;;;8.23;2.80;;;12.90;99.90;;;;;;5064096;28;20037;-57
2023/05/25 01:57:17;;;;;;;10.77;2.83;;;13.00;99.90;;;;;;5062116;28;20130;-58
2023/05/25 01:59:47;;;;;;;7.95;2.53;;;13.00;99.90;;;;;;5072730;28;20508;-58
2023/05/25 02:02:17;;;;;;;6.93;2.63;;;13.00;99.90;;;;;;5072295;28;20055;-58
2023/05/25 02:04:45;;;;;;;7.93;3.10;;;13.10;99.90;;;;;;5067531;28;20045;-58
2023/05/25 02:07:13;;;;;;;6.00;2.67;;;13.10;99.90;;;;;;5072841;28;20049;-58
2023/05/25 02:09:41;;;;;;;7.97;2.80;;;13.10;99.90;;;;;;5074092;28;20037;-57
2023/05/25 02:12:11;;;;;;;5.28;2.58;;;13.20;99.90;;;;;;5070405;28;20040;-58
2023/05/25 02:14:39;;;;;;;5.30;2.10;;;13.20;99.90;;;;;;5070484;28;20071;-58
2023/05/25 02:17:08;;;;;;;8.82;2.55;;;13.20;99.90;;;;;;5071169;28;20053;-57
2023/05/25 02:19:36;;;;;;;5.78;2.55;;;13.20;99.90;;;;;;5070219;28;20052;-58
2023/05/25 02:22:04;;;;;;;7.60;2.53;;;13.20;99.90;;;;;;5070496;28;20056;-58
2023/05/25 02:24:33;;;;;;;8.48;2.33;;;13.30;99.90;;;;;;5073697;28;20067;-57
2023/05/25 02:27:02;;;;;;;6.45;2.30;;;13.30;99.90;;;;;;5056367;28;20041;-57
2023/05/25 02:29:31;;;;;;;4.50;2.50;;;13.30;99.90;;;;;;5072486;28;20041;-58
2023/05/25 02:32:01;;;;;;;10.18;3.08;;;13.30;99.90;;;;;;5053368;28;20044;-57
2023/05/25 02:34:29;;;;;;;6.95;2.75;;;13.30;99.90;;;;;;5068016;28;20527;-58
2023/05/25 02:36:57;;;;;;;7.20;2.53;;;13.30;99.90;;;;;;5060836;28;20049;-58
2023/05/25 02:39:26;;;;;;;5.82;2.30;;;13.30;99.90;;;;;;5071156;28;20048;-58
2023/05/25 02:41:56;;;;;;;7.13;2.95;;;13.30;99.90;;;;;;5063586;28;20068;-57
2023/05/25 02:44:24;;;;;;;10.18;3.25;;;13.30;99.90;;;;;;5068277;28;20063;-57
2023/05/25 02:46:51;;;;;;;6.65;2.75;;;13.30;99.90;;;;;;5070884;28;20045;-57
2023/05/25 02:49:19;;;;;;;8.95;2.50;;;13.30;99.90;;;;;;5070450;28;20526;-56
2023/05/25 02:51:48;;;;;;;9.52;3.65;;;13.30;99.90;;;;;;5077798;28;20179;-58
2023/05/25 02:54:16;;;;;;;6.60;3.08;;;13.30;99.90;;;;;;5066696;28;20047;-57
2023/05/25 02:56:45;;;;;;;5.18;2.78;;;13.30;99.90;;;;;;5067771;28;20036;-57
2023/05/25 02:59:15;;;;;;;7.63;3.05;;;13.30;99.90;;;;;;5058080;28;20040;-57
2023/05/25 03:01:45;;;;;;;11.30;2.67;;;13.30;99.90;;;;;;5058294;28;20044;-57
2023/05/25 03:04:13;;;;;;;8.40;2.45;;;13.30;99.90;;;;;;5063644;28;20396;-57
2023/05/25 03:06:44;;;;;;;5.45;2.35;;;13.20;99.90;;;;;;5064461;28;20049;-57
2023/05/25 03:09:16;;;;;;;8.38;3.13;;;13.20;99.90;;;;;;5052267;28;20072;-58
2023/05/25 03:11:46;;;;;;;8.35;3.03;;;13.20;99.90;;;;;;5045016;28;20041;-57
2023/05/25 03:14:16;;;;;;;9.15;2.72;;;13.20;99.90;;;;;;5065478;28;20056;-57
2023/05/25 03:16:51;;;;;;;8.52;2.50;;;13.20;99.90;;;;;;5071971;28;20048;-57
2023/05/25 03:19:23;;;;;;;9.15;2.88;;;13.20;99.90;;;;;;5072517;28;20041;-57
2023/05/25 03:21:51;;;;;;;7.15;2.10;;;13.30;99.90;;;;;;5070908;28;20415;-58
2023/05/25 03:24:19;;;;;;;7.50;2.08;;;13.30;99.90;;;;;;5071674;28;20048;-58
2023/05/25 03:26:47;;;;;;;6.22;2.78;;;13.30;99.90;;;;;;5068189;28;20479;-58
2023/05/25 03:29:16;;;;;;;5.30;2.60;;;13.30;99.90;;;;;;5058960;28;20048;-58
2023/05/25 03:31:43;;;;;;;6.22;2.30;;;13.30;99.90;;;;;;5063369;28;20071;-59
2023/05/25 03:34:11;;;;;;;6.28;1.95;;;13.30;99.90;;;;;;5070680;28;20051;-57
2023/05/25 03:36:44;;;;;;;9.40;3.05;;;13.30;99.90;;;;;;5065476;28;20052;-57
2023/05/25 03:39:13;;;;;;;4.65;2.00;;;13.30;99.90;;;;;;5062907;28;20048;-57
2023/05/25 03:41:42;;;;;;;4.45;1.80;;;13.30;99.90;;;;;;5062674;28;20040;-57
2023/05/25 03:44:11;;;;;;;7.22;2.28;;;13.30;99.90;;;;;;5067149;28;20119;-57
2023/05/25 03:46:39;;;;;;;9.88;2.85;;;13.30;99.90;;;;;;5054213;28;20052;-57
2023/05/25 03:49:12;;;;;;;8.25;2.58;;;13.30;99.90;;;;;;5066708;28;20071;-57
2023/05/25 03:51:41;;;;;;;8.82;2.00;;;13.30;99.90;;;;;;5070806;28;20037;-57
2023/05/25 03:54:10;;;;;;;6.00;1.75;;;13.30;99.90;;;;;;5063330;28;20529;-57
2023/05/25 03:56:38;;;;;;;14.45;2.15;;;13.30;99.90;;;;;;5070604;28;20036;-57
2023/05/25 03:59:06;;;;;;;11.57;2.92;;;13.20;99.90;;;;;;5067568;28;20444;-58
2023/05/25 04:01:36;;;;;;;11.55;2.67;;;13.20;99.90;;;;;;5068355;28;20515;-57
2023/05/25 04:04:05;;;;;;;5.22;1.95;;;13.20;99.90;;;;;;5061184;28;20476;-58
2023/05/25 04:06:36;;;;;;;8.50;2.60;;;13.20;99.90;;;;;;5059330;28;20056;-58
2023/05/25 04:09:04;;;;;;;16.52;2.38;;;13.20;99.90;;;;;;5066452;28;20044;-59
2023/05/25 04:11:33;;;;;;;4.63;2.13;;;13.20;99.90;;;;;;5071393;28;20060;-57
2023/05/25 04:14:01;;;;;;;6.28;1.88;;;13.20;99.90;;;;;;5068857;28;20052;-57
2023/05/25 04:16:32;;;;;;;9.10;2.45;;;13.20;99.90;;;;;;5053262;28;20045;-57
2023/05/25 04:19:01;;;;;;;5.97;2.95;;;13.20;99.90;;;;;;5062666;28;20044;-56
2023/05/25 04:21:29;;;;;;;10.20;2.55;;;13.60;99.90;;;;;;5071354;28;20052;-58
2023/05/25 04:23:56;;;;;;;13.15;2.58;;;13.30;99.90;;;;;;5062911;28;20573;-58
2023/05/25 04:26:25;;;;;;;8.95;2.28;;;13.30;99.90;;;;;;5070364;28;20036;-58
2023/05/25 04:28:57;;;;;;;12.18;2.90;;;13.30;99.90;;;;;;5069879;28;20051;-57
2023/05/25 04:31:48;;;;;;;22.92;3.00;;;13.30;99.90;;;;;;5057417;28;20036;-58
2023/05/25 04:34:33;;;;;;;8.70;3.13;;;13.30;99.90;;;;;;5065626;28;20046;-58
2023/05/25 04:37:10;;;;;;;9.90;2.45;;;13.30;99.90;;;;;;5059184;28;20044;-58
2023/05/25 04:39:39;;;;;;;10.32;2.65;;;13.30;99.90;;;;;;5070389;28;20391;-59
2023/05/25 04:42:07;;;;;;;11.55;2.38;;;13.30;99.90;;;;;;5056109;28;20072;-58
2023/05/25 04:44:35;;;;;;;6.53;2.05;;;13.30;99.90;;;;;;5064297;28;20048;-58
2023/05/25 04:47:06;;;;;;;9.70;2.45;;;13.30;99.90;;;;;;5051471;28;20043;-57
2023/05/25 04:49:34;;;;;;;10.02;2.38;;;13.30;99.90;;;;;;5063099;28;20051;-57
2023/05/25 04:52:02;;;;;;;8.80;3.17;;;13.30;99.90;;;;;;5064562;28;20049;-58
2023/05/25 04:54:31;;;;;;;10.65;2.92;;;13.30;99.90;;;;;;5052013;28;20037;-58
2023/05/25 04:57:02;;;;;;;9.77;3.67;;;13.30;99.90;;;;;;5054765;28;20041;-58
2023/05/25 04:59:32;;;;;;;7.13;3.20;;;13.40;99.90;;;;;;5068186;28;20048;-58
2023/05/25 05:02:00;;;;;;;6.95;3.17;;;13.40;99.90;;;;;;5060732;28;20519;-58
2023/05/25 05:04:29;;;;;;;10.23;3.17;;;;;;;;;;5056731;28;20433;-58
2023/05/25 05:06:58;;;;;;;11.40;2.80;;;13.40;99.90;;;;;;5063237;28;20040;-57
2023/05/25 05:09:30;;;;;;;6.43;2.70;;;13.40;99.90;;;;;;5077208;28;20044;-56
2023/05/25 05:12:01;;;;;;;9.77;3.75;;;13.40;99.90;;;;;;5063541;28;20040;-58
2023/05/25 05:14:34;;;;;;;12.18;3.40;;;13.40;99.90;;;;;;5062936;28;20048;-57
2023/05/25 05:17:03;;;;;;;11.57;3.45;;;13.50;99.90;;;;;;5066748;28;20043;-57
2023/05/25 05:19:31;;;;;;;8.70;2.92;;;13.50;99.90;;;;;;5063376;28;20045;-57
2023/05/25 05:21:59;;;;;;;7.13;3.15;;;13.50;99.90;;;;;;5072042;28;20048;-59
2023/05/25 05:24:27;;;;;;;9.75;2.55;;;13.50;99.90;;;;;;5066564;28;20045;-59
2023/05/25 05:26:55;;;;;;;13.10;2.92;;;13.60;99.90;;;;;;5058231;28;20037;-58
2023/05/25 05:29:38;;;;;;;10.65;3.95;;;13.60;99.90;;;;;;5046893;28;20068;-58
2023/05/25 05:32:07;;;;;;;10.77;3.15;;;13.60;99.90;;;;;;5053736;28;20033;-58
2023/05/25 05:34:35;;;;;;;10.23;3.17;;;13.60;99.90;;;;;;5058561;28;20041;-57
2023/05/25 05:37:07;;;;;;;15.23;3.20;;;13.70;99.90;;;;;;5066339;28;20060;-58
2023/05/25 05:39:36;;;;;;;7.15;2.85;;;13.70;99.90;;;;;;5051799;28;20046;-57
2023/05/25 05:42:06;;;;;;;14.02;3.28;;;13.70;99.90;;;;;;5054074;28;20059;-58
2023/05/25 05:44:35;;;;;;;8.85;2.70;;;13.80;99.90;;;;;;5057786;28;20033;-58
2023/05/25 05:47:03;;;;;;;6.55;3.17;;;13.80;99.90;;;;;;5053578;28;20293;-58
2023/05/25 05:49:31;;;;;;;9.10;3.50;;;13.90;99.90;;;;;;5066182;28;20052;-58
2023/05/25 05:52:02;;;;;;;10.95;2.85;;;13.90;99.90;;;;;;5068346;28;20049;-58
2023/05/25 05:54:30;;;;;;;11.57;3.35;;;13.90;99.90;;;;;;5054105;28;20060;-58
2023/05/25 05:57:05;;;;;;;8.32;3.13;;;14.00;99.90;;;;;;5063131;28;20040;-57
2023/05/25 05:59:33;;;;;;;14.57;3.10;;;14.00;99.90;;;;;;5088273;28;20059;-59
2023/05/25 06:02:03;;;;;;;11.10;3.47;;;14.10;99.90;;;;;;5066180;28;20407;-57
2023/05/25 06:04:32;;;;;;;10.60;2.83;;;14.20;99.90;;;;;;5063236;28;20484;-58
2023/05/25 06:06:59;;;;;;;11.98;3.47;;;14.20;99.90;;;;;;5068924;28;20455;-58
2023/05/25 06:09:29;;;;;;;20.95;3.58;;;14.30;99.90;;;;;;5070029;28;20052;-58
2023/05/25 06:12:00;;;;;;;7.93;3.33;;;14.30;99.90;;;;;;5069551;28;20059;-57
2023/05/25 06:14:28;;;;;;;11.83;3.17;;;14.30;99.90;;;;;;5069249;28;20040;-58
2023/05/25 06:17:00;;;;;;;13.88;3.70;;;14.30;99.90;;;;;;5069344;28;20308;-58
2023/05/25 06:19:28;;;;;;;7.97;3.08;;;14.30;99.90;;;;;;5073052;28;20052;-58
2023/05/25 06:21:56;;;;;;;14.40;3.60;;;14.30;99.90;;;;;;5055734;28;20048;-58
2023/05/25 06:24:24;;;;;;;9.07;3.35;;;14.30;99.90;;;;;;5068075;28;20048;-57
2023/05/25 06:26:52;;;;;;;12.30;3.15;;;14.40;99.90;;;;;;5070916;28;20043;-57
2023/05/25 06:29:21;;;;;;;12.55;4.18;;;14.40;99.90;;;;;;5049434;28;20052;-56
2023/05/25 06:31:49;;;;;;;14.30;3.90;;;14.40;99.90;;;;;;5049866;28;20029;-59
2023/05/25 06:34:18;;;;;;;12.30;4.35;;;14.50;99.90;;;;;;5052026;28;20510;-58
2023/05/25 06:36:48;;;;;;;;;;;14.50;99.90;;;;;;5068708;28;20053;-58
2023/05/25 06:39:16;;;;;;;15.02;3.85;;;14.60;99.90;;;;;;5070382;28;20382;-58
2023/05/25 06:41:44;;;;;;;10.30;3.50;;;14.70;99.90;;;;;;5070604;28;20044;-59
2023/05/25 06:44:16;;;;;;;10.43;4.28;;;14.70;99.90;;;;;;5069565;28;20055;-57
2023/05/25 06:46:47;;;;;;;11.32;3.67;;;14.80;99.90;;;;;;5066398;28;20040;-58
2023/05/25 06:49:16;;;;;;;10.52;4.22;;;14.70;99.90;;;;;;5065783;28;20036;-56
2023/05/25 06:51:44;;;;;;;13.48;4.68;;;14.90;99.90;;;;;;5077214;28;20048;-59
2023/05/25 06:54:14;;;;;;;10.85;4.68;;;14.90;99.90;;;;;;5052077;28;20632;-57
2023/05/25 06:56:42;;;;;;;9.27;4.20;;;15.00;99.90;;;;;;5070686;28;20045;-58
2023/05/25 06:59:09;;;;;;;10.93;3.90;;;15.00;99.90;;;;;;5068419;28;20075;-58
2023/05/25 07:01:40;;;;;;;8.35;3.85;;;15.00;99.90;;;;;;5065280;28;20037;-59
2023/05/25 07:04:08;;;;;;;13.93;5.22;;;15.00;99.90;;;;;;5062759;28;20082;-58
2023/05/25 07:06:36;;;;;;;15.93;4.65;;;15.00;99.90;;;;;;5058454;28;20052;-56
2023/05/25 07:09:03;;;;;;;12.32;4.60;;;15.00;99.90;;;;;;5065291;28;20052;-58
2023/05/25 07:11:31;;;;;;;13.10;5.45;;;15.00;99.90;;;;;;5067019;28;20476;-59
2023/05/25 07:13:59;;;;;;;12.05;5.47;;;15.10;99.90;;;;;;5069659;28;20056;-58
2023/05/25 07:16:27;;;;;;;12.60;5.22;;;15.10;99.90;;;;;;5070210;28;20044;-58
2023/05/25 07:18:56;;;;;;;12.40;5.00;;;15.10;99.90;;;;;;5069498;28;20198;-58
2023/05/25 07:21:30;;;;;;;17.05;5.57;;;15.10;99.90;;;;;;5072740;28;20043;-57
2023/05/25 07:23:58;;;;;;;11.93;6.00;;;15.10;99.90;;;;;;5061307;28;20059;-57
2023/05/25 07:26:26;;;;;;;14.75;5.72;;;15.10;99.90;;;;;;5067961;28;20040;-58
2023/05/25 07:28:53;;;;;;;14.98;6.05;;;15.10;99.90;;;;;;5067604;28;20056;-58
2023/05/25 07:31:21;;;;;;;13.00;6.18;;;15.10;99.90;;;;;;5069576;28;20040;-56
2023/05/25 07:33:50;;;;;;;14.00;5.57;;;15.20;99.90;;;;;;5066234;28;20541;-57
2023/05/25 07:36:18;;;;;;;12.93;4.75;;;15.20;99.90;;;;;;5069231;28;20427;-58
2023/05/25 07:38:46;;;;;;;18.23;5.68;;;15.30;99.90;;;;;;5072137;28;20503;-57
2023/05/25 07:41:14;;;;;;;16.13;5.55;;;15.30;99.90;;;;;;5064983;28;20060;-57
2023/05/25 07:43:46;;;;;;;11.30;5.00;;;15.30;99.90;;;;;;5062910;28;20063;-58
2023/05/25 07:46:15;;;;;;;11.32;4.75;;;15.30;99.90;;;;;;5049423;28;20045;-58
2023/05/25 07:48:43;;;;;;;15.32;6.10;;;15.40;99.90;;;;;;5062688;28;20052;-58
2023/05/25 07:51:12;;;;;;;17.25;5.80;;;;;;;;;;5069171;28;20052;-57
2023/05/25 07:53:41;;;;;;;12.07;5.88;;;15.60;99.90;;;;;;5073617;28;20049;-58
2023/05/25 07:56:09;;;;;;;22.70;6.82;;;15.60;99.90;;;;;;5054087;28;20053;-58
2023/05/25 07:58:38;;;;;;;12.77;5.78;;;15.70;99.90;;;;;;5060631;28;20503;-57
2023/05/25 08:01:05;;;;;;;14.15;6.18;;;15.70;99.90;;;;;;5068246;28;20048;-58
2023/05/25 08:03:33;;;;;;;11.07;5.85;;;15.70;99.90;;;;;;5059577;28;20060;-57
2023/05/25 08:06:17;;;;;;;13.45;5.70;;;15.70;99.90;;;;;;5068902;28;20052;-58
2023/05/25 08:08:45;;;;;;;12.63;5.63;;;15.70;99.90;;;;;;5068661;28;20037;-58
2023/05/25 08:11:15;;;;;;;20.85;5.72;;;15.70;99.90;;;;;;5067781;28;20052;-58
2023/05/25 08:13:43;;;;;;;15.33;5.73;;;15.80;99.90;;;;;;5067842;28;20052;-59
2023/05/25 08:16:11;;;;;;;13.57;5.88;;;15.90;99.90;;;;;;5066658;28;20320;-59
2023/05/25 08:18:45;;;;;;;17.35;5.95;;;16.00;99.90;;;;;;5057123;28;20044;-59
2023/05/25 08:21:16;;;;;;;13.50;5.85;;;16.10;99.90;;;;;;5052360;28;20049;-58
2023/05/25 08:23:44;;;;;;;14.10;5.95;;;16.10;99.90;;;;;;5048570;28;20490;-58
2023/05/25 08:26:14;;;;;;;15.88;6.70;;;16.30;99.90;;;;;;5051139;28;20052;-57
2023/05/25 08:29:03;;;;;;;13.10;6.13;;;16.40;99.90;;;;;;5079268;28;20705;-58
2023/05/25 08:31:31;;;;;;;13.30;5.93;;;16.50;99.90;;;;;;5049147;28;20037;-58
2023/05/25 08:34:00;;;;;;;15.48;6.60;;;16.70;99.90;;;;;;5064542;28;20055;-59
2023/05/25 08:36:28;;;;;;;13.98;5.95;;;16.70;99.90;;;;;;5063986;28;20048;-58
2023/05/25 08:38:56;;;;;;;13.75;6.18;;;16.70;99.90;;;;;;5066619;28;20037;-57
2023/05/25 08:41:23;;;;;;;18.85;6.28;;;16.70;99.90;;;;;;5064667;28;20045;-57
2023/05/25 08:43:52;;;;;;;17.15;7.15;;;16.70;99.90;;;;;;5064437;28;20040;-58
2023/05/25 08:46:38;;;;;;;15.55;5.80;;;16.60;99.90;;;;;;5054494;28;20049;-56
2023/05/25 08:49:14;;;;;;;13.50;6.10;;;16.70;99.90;;;;;;5059892;28;20541;-59
2023/05/25 08:51:53;;;;;;;15.35;6.50;;;16.70;99.90;;;;;;5064549;28;20049;-58
2023/05/25 08:54:29;;;;;;;14.63;6.18;;;16.80;99.90;;;;;;5057512;28;20526;-59
2023/05/25 08:57:11;;;;;;;12.30;5.78;;;16.90;99.90;;;;;;5058502;28;20529;-57
2023/05/25 09:00:09;;;;;;;17.95;5.97;;;16.90;99.90;;;;;;5065114;28;20048;-58
2023/05/25 09:02:52;;;;;;;16.88;5.70;;;17.10;99.90;;;;;;5069218;28;20056;-57
2023/05/25 09:05:21;;;;;;;10.82;5.28;;;17.30;99.90;;;;;;5067464;28;20499;-56
2023/05/25 09:07:58;;;;;;;18.08;5.80;;;17.60;99.90;;;;;;5063880;28;20044;-57
2023/05/25 09:10:29;;;;;;;9.02;4.18;;;17.80;99.90;;;;;;5055602;28;20048;-58
2023/05/25 09:12:57;;;;;;;13.63;4.90;;;18.10;99.90;;;;;;5053868;28;20048;-58
2023/05/25 09:15:39;;;;;;;15.68;4.78;;;18.10;99.90;;;;;;5048335;28;20518;-57
2023/05/25 09:18:09;;;;;;;12.05;4.45;;;18.30;99.90;;;;;;5058399;28;20048;-58
2023/05/25 09:20:40;;;;;;;14.65;5.03;;;18.40;99.90;;;;;;5049335;28;20036;-58
2023/05/25 09:23:13;;;;;;;11.10;5.05;;;18.60;99.90;;;;;;5054208;28;20041;-58
2023/05/25 09:25:44;;;;;;;12.95;5.28;;;18.70;99.90;;;;;;5057447;28;20063;-59
2023/05/25 09:28:17;;;;;;;13.00;5.57;;;18.80;99.90;;;;;;5044899;28;20047;-56
2023/05/25 09:30:54;;;;;;;10.85;4.57;;;18.90;99.90;;;;;;5062095;28;20052;-57
2023/05/25 09:33:22;;;;;;;12.05;4.60;;;19.00;99.90;;;;;;5054591;28;20538;-57
2023/05/25 09:35:50;;;;;;;13.23;4.75;;;19.20;99.90;;;;;;5060528;28;20480;-58
2023/05/25 09:38:20;;;;;;;15.90;4.82;;;19.20;99.90;;;;;;5064705;28;20048;-57
2023/05/25 09:40:48;;;;;;;13.50;5.25;;;19.30;99.90;;;;;;5060309;28;20052;-58
2023/05/25 09:43:16;;;;;;;9.32;4.60;;;19.30;99.90;;;;;;5076777;28;20407;-59
2023/05/25 09:46:00;;;;;;;9.38;5.03;;;19.40;99.90;;;;;;5067317;28;20049;-57
2023/05/25 09:48:28;;;;;;;10.88;5.35;;;19.60;99.90;;;;;;5055902;28;20060;-58
2023/05/25 09:50:56;;;;;;;17.08;5.80;;;19.70;99.90;;;;;;5052284;28;20572;-58
2023/05/25 09:53:25;;;;;;;14.73;5.32;;;19.80;99.90;;;;;;5070043;28;20040;-58
2023/05/25 09:55:53;;;;;;;13.07;5.00;;;19.90;99.90;;;;;;5063974;28;20057;-58
2023/05/25 09:58:25;;;;;;;12.50;5.50;;;19.90;99.90;;;;;;5057725;28;20491;-57
2023/05/25 10:00:54;;;;;;;13.50;5.10;;;19.90;99.90;;;;;;5047297;28;20498;-57
2023/05/25 10:03:26;;;;;;;14.55;5.05;;;19.90;99.90;;;;;;5062324;28;20500;-59
2023/05/25 10:05:54;;;;;;;13.93;5.40;;;19.90;99.90;;;;;;5048294;28;20071;-58
2023/05/25 10:08:24;;;;;;;13.30;4.95;;;19.90;99.90;;;;;;5049097;28;20064;-58
2023/05/25 10:10:55;;;;;;;12.80;5.30;;;20.10;99.90;;;;;;5058975;28;20079;-58
2023/05/25 10:13:26;;;;;;;11.00;5.00;;;20.20;99.90;;;;;;5067196;28;20056;-58
2023/05/25 10:15:54;;;;;;;;;;;20.20;99.90;;;;;;5071721;28;20373;-58
2023/05/25 10:18:26;;;;;;;14.13;5.05;;;20.20;99.90;;;;;;5062511;28;19939;-58
2023/05/25 10:21:02;;;;;;;12.90;4.72;;;20.20;99.90;;;;;;5063956;28;20052;-58
2023/05/25 10:23:40;;;;;;;17.42;5.85;;;20.20;99.90;;;;;;5062662;28;20049;-58
2023/05/25 10:26:10;;;;;;;12.38;5.35;;;20.10;99.90;;;;;;5079506;28;20044;-59
2023/05/25 10:28:41;;;;;;;13.25;4.78;;;20.10;99.90;;;;;;5069464;28;20055;-57
2023/05/25 10:31:09;;;;;;;;;;;20.20;99.90;;;;;;5062058;28;20040;-59
2023/05/25 10:33:38;;;;;;;11.80;4.38;;;20.50;99.90;;;;;;5057977;28;19920;-56
2023/05/25 10:36:09;;;;;;;11.00;4.40;;;20.80;99.90;;;;;;5068376;28;20063;-58
2023/05/25 10:38:43;;;;;;;8.60;5.38;;;21.20;99.90;;;;;;5078487;28;20068;-58
2023/05/25 10:41:14;;;;;;;15.15;5.10;;;21.70;99.90;;;;;;5068475;28;20051;-58
2023/05/25 10:43:42;;;;;;;12.57;4.63;;;22.10;99.90;;;;;;5036774;28;20519;-58
2023/05/25 10:46:13;;;;;;;17.83;4.95;;;22.00;99.90;;;;;;5050362;28;20502;-58
2023/05/25 10:48:50;;;;;;;11.32;4.82;;;22.10;99.90;;;;;;5062854;28;20408;-59
2023/05/25 10:51:19;;;;;;;20.77;8.90;;;21.90;99.90;;;;;;5069921;28;20048;-56
2023/05/25 10:53:58;;;;;;;17.75;6.85;;;21.50;99.90;;;;;;5069989;28;20041;-58
2023/05/25 10:56:26;;;;;;;11.25;4.70;;;21.30;99.90;;;;;;5063838;28;20045;-59
2023/05/25 10:58:54;;;;;;;10.02;4.40;;;21.10;99.90;;;;;;5065937;28;20052;-59
2023/05/25 11:01:22;;;;;;;9.75;4.30;;;21.00;99.90;;;;;;5066877;28;20045;-58
2023/05/25 11:03:55;;;;;;;12.50;3.85;;;20.80;99.90;;;;;;5063098;28;20051;-59
2023/05/25 11:06:43;;;;;;;8.95;4.47;;;20.80;99.90;;;;;;5066586;28;20051;-58
2023/05/25 11:09:27;;;;;;;9.75;4.25;;;20.70;99.90;;;;;;5063377;28;20056;-59
2023/05/25 11:11:58;;;;;;;13.27;4.40;;;20.60;99.90;;;;;;5067537;28;20045;-57
2023/05/25 11:14:29;;;;;;;9.88;4.18;;;20.30;99.90;;;;;;5053523;28;20353;-60
2023/05/25 11:17:06;;;;;;;9.95;3.92;;;20.30;99.90;;;;;;5066830;28;20045;-57
2023/05/25 11:19:42;;;;;;;10.77;4.03;;;20.30;99.90;;;;;;5055900;28;20045;-59
2023/05/25 11:22:19;;;;;;;10.20;4.07;;;20.20;99.90;;;;;;5065466;28;20045;-58
2023/05/25 11:24:52;;;;;;;11.85;5.10;;;20.20;99.90;;;;;;5076491;28;20049;-58
2023/05/25 11:27:27;;;;;;;9.68;4.53;;;20.30;99.90;;;;;;5065817;28;20063;-58
2023/05/25 11:29:56;;;;;;;11.10;4.82;;;20.30;99.90;;;;;;5047886;28;20056;-59
2023/05/25 11:32:28;;;;;;;14.70;4.67;;;20.30;99.90;;;;;;5059097;28;20052;-58
2023/05/25 11:34:57;;;;;;;13.20;5.25;;;20.40;99.90;;;;;;5058433;28;20309;-59
2023/05/25 11:37:30;;;;;;;12.57;4.75;;;20.40;99.90;;;;;;5061603;28;20036;-59
2023/05/25 11:39:59;;;;;;;12.10;4.53;;;20.30;99.90;;;;;;5065612;28;20063;-59
2023/05/25 11:42:27;;;;;;;8.88;4.00;;;20.30;99.90;;;;;;5054312;28;20577;-59
2023/05/25 11:44:55;;;;;;;9.90;4.47;;;20.30;99.90;;;;;;5057262;28;20053;-59
2023/05/25 11:47:24;;;;;;;11.82;3.88;;;20.30;99.90;;;;;;5065239;28;20048;-58
2023/05/25 11:49:55;;;;;;;10.68;3.90;;;20.30;99.90;;;;;;5059806;28;20059;-58
2023/05/25 11:52:23;;;;;;;8.98;4.00;;;20.20;99.90;;;;;;5058114;28;20044;-58
2023/05/25 11:54:51;;;;;;;9.80;3.40;;;20.20;99.90;;;;;;5057818;28;20091;-58
2023/05/25 11:57:25;;;;;;;12.82;3.75;;;20.10;99.90;;;;;;5059182;28;20419;-58
2023/05/25 11:59:54;;;;;;;9.13;3.70;;;20.10;99.90;;;;;;5052978;28;20048;-58
2023/05/25 12:02:23;;;;;;;12.88;3.75;;;20.00;99.90;;;;;;5064294;28;20052;-57
2023/05/25 12:05:00;;;;;;;11.80;3.53;;;20.00;99.90;;;;;;5054381;28;20475;-58
2023/05/25 12:07:30;;;;;;;8.48;3.00;;;20.00;99.90;;;;;;5067190;28;20049;-59
2023/05/25 12:10:08;;;;;;;9.57;2.65;;;20.00;99.90;;;;;;5067985;28;20408;-59
2023/05/25 12:12:41;;;;;;;7.20;2.85;;;19.90;99.90;;;;;;5064441;28;20037;-58
2023/05/25 12:15:11;;;;;;;9.23;3.33;;;20.00;99.90;;;;;;5061632;28;20041;-57
2023/05/25 12:17:41;;;;;;;10.90;2.58;;;19.90;99.90;;;;;;5064465;28;20514;-58
2023/05/25 12:20:10;;;;;;;;;;;20.00;99.90;;;;;;5057963;28;20408;-59
2023/05/25 12:22:39;;;;;;;10.40;3.15;;;19.90;99.90;;;;;;5066000;28;20395;-58
2023/05/25 12:25:11;;;;;;;10.63;3.03;;;19.90;99.90;;;;;;5052446;28;20052;-59
2023/05/25 12:27:39;;;;;;;9.45;3.33;;;19.90;99.90;;;;;;5059109;28;20041;-59
2023/05/25 12:30:09;;;;;;;8.88;3.00;;;19.90;99.90;;;;;;5034842;28;20052;-60
2023/05/25 12:32:59;;;;;;;10.18;3.03;;;19.90;99.90;;;;;;5068639;28;20060;-59
2023/05/25 12:35:43;;;;;;;7.60;2.90;;;19.90;99.90;;;;;;5050926;28;20084;-58
2023/05/25 12:38:21;;;;;;;12.70;3.38;;;19.80;99.90;;;;;;5057889;28;20044;-59
2023/05/25 12:41:06;;;;;;;9.57;3.22;;;19.90;99.90;;;;;;5035099;28;20057;-57
2023/05/25 12:43:39;;;;;;;9.02;3.00;;;19.90;99.90;;;;;;5055006;28;20310;-58
2023/05/25 12:46:07;;;;;;;7.97;3.20;;;19.90;99.90;;;;;;5057588;28;20053;-58
2023/05/25 12:48:35;;;;;;;11.00;3.22;;;19.90;99.90;;;;;;5064722;28;20044;-58
2023/05/25 12:51:03;;;;;;;8.80;2.60;;;19.90;99.90;;;;;;5067070;28;20041;-58
2023/05/25 12:53:32;;;;;;;6.57;2.25;;;19.90;99.90;;;;;;5064367;28;20047;-59
2023/05/25 12:56:02;;;;;;;6.17;2.70;;;19.80;99.90;;;;;;5058690;28;20043;-60
2023/05/25 12:58:30;;;;;;;10.02;2.80;;;19.80;99.90;;;;;;5062425;28;20036;-59
2023/05/25 13:00:58;;;;;;;5.53;2.50;;;19.80;99.90;;;;;;5054564;28;20045;-60